createdAt,value
2022-10-30T00:00:47.584Z,13.57
2022-10-30T00:03:16.510Z,13.62
2022-10-30T00:05:50.008Z,13.63
2022-10-30T00:08:23.545Z,13.65
2022-10-30T00:10:51.134Z,13.52
2022-10-30T00:13:22.462Z,13.56
2022-10-30T00:15:57.649Z,13.60
2022-10-30T00:18:24.982Z,13.58
2022-10-30T00:20:52.350Z,13.68
2022-10-30T00:23:22.152Z,13.71
2022-10-30T00:25:49.617Z,13.72
2022-10-30T00:28:22.765Z,13.68
2022-10-30T00:30:49.734Z,13.60
2022-10-30T00:33:20.370Z,13.58
2022-10-30T00:35:53.215Z,13.62
2022-10-30T00:38:23.880Z,13.55
2022-10-30T00:40:54.591Z,13.43
2022-10-30T00:46:46.133Z,13.36
2022-10-30T00:49:22.476Z,13.49
2022-10-30T00:51:55.336Z,13.62
2022-10-30T00:54:27.646Z,13.72
2022-10-30T00:57:05.325Z,13.60
2022-10-30T00:59:37.747Z,13.52
2022-10-30T01:02:18.740Z,13.44
2022-10-30T01:04:51.532Z,13.35
2022-10-30T01:07:29.355Z,13.16
2022-10-30T01:09:56.510Z,13.04
2022-10-30T01:12:38.980Z,13.13
2022-10-30T01:15:15.899Z,13.13
2022-10-30T01:18:45.307Z,13.01
2022-10-30T01:22:26.046Z,12.88
2022-10-30T01:26:07.542Z,12.91
2022-10-30T01:29:02.812Z,13.13
2022-10-30T01:31:40.387Z,13.17
2022-10-30T01:34:47.680Z,13.26
2022-10-30T01:37:42.315Z,13.35
2022-10-30T01:40:18.435Z,13.07
2022-10-30T01:42:56.972Z,13.32
2022-10-30T01:46:30.854Z,13.18
2022-10-30T01:50:25.573Z,12.99
2022-10-30T01:53:57.234Z,12.83
2022-10-30T01:59:58.458Z,12.64
2022-10-30T02:02:29.045Z,12.69
2022-10-30T02:05:02.140Z,12.74
2022-10-30T02:07:32.877Z,12.82
2022-10-30T02:10:00.835Z,12.73
2022-10-30T02:12:32.333Z,12.74
2022-10-30T02:15:02.112Z,12.68
2022-10-30T02:17:35.495Z,12.48
2022-10-30T02:20:24.681Z,12.28
2022-10-30T02:23:12.107Z,12.11
2022-10-30T02:25:46.823Z,12.20
2022-10-30T02:28:23.695Z,12.36
2022-10-30T02:31:11.122Z,12.37
2022-10-30T02:36:35.120Z,12.28
2022-10-30T02:39:02.988Z,12.45
2022-10-30T02:41:41.659Z,12.51
2022-10-30T02:44:09.473Z,12.51
2022-10-30T02:46:42.466Z,12.47
2022-10-30T02:55:16.410Z,12.47
2022-10-30T02:57:50.328Z,12.55
2022-10-30T03:00:27.598Z,12.65
2022-10-30T03:03:06.035Z,12.80
2022-10-30T03:08:48.865Z,12.51
2022-10-30T03:11:48.073Z,12.29
2022-10-30T03:14:29.880Z,12.05
2022-10-30T03:17:49.590Z,11.88
2022-10-30T03:23:01.663Z,11.94
2022-10-30T03:25:35.470Z,12.03
2022-10-30T03:28:32.134Z,12.29
2022-10-30T03:31:42.973Z,12.47
2022-10-30T03:34:27.956Z,12.29
2022-10-30T04:00:27.930Z,12.30
2022-10-30T04:03:22.762Z,12.41
2022-10-30T04:06:14.545Z,12.41
2022-10-30T04:08:44.833Z,12.29
2022-10-30T04:11:12.388Z,12.25
2022-10-30T04:13:42.666Z,12.19
2022-10-30T04:16:15.590Z,12.05
2022-10-30T04:18:48.644Z,12.09
2022-10-30T04:21:18.933Z,12.17
2022-10-30T04:24:04.444Z,12.45
2022-10-30T04:26:32.023Z,12.02
2022-10-30T04:28:59.973Z,11.95
2022-10-30T04:31:38.135Z,12.46
2022-10-30T04:34:08.615Z,12.39
2022-10-30T04:36:36.375Z,12.45
2022-10-30T04:39:15.613Z,12.39
2022-10-30T04:42:03.176Z,12.48
2022-10-30T04:44:47.449Z,12.72
2022-10-30T04:47:27.265Z,12.28
2022-10-30T04:49:55.166Z,11.94
2022-10-30T04:52:53.485Z,11.76
2022-10-30T04:55:23.841Z,11.80
2022-10-30T04:58:10.122Z,11.87
2022-10-30T05:00:41.696Z,12.31
2022-10-30T05:03:27.118Z,12.30
2022-10-30T05:06:30.786Z,12.14
2022-10-30T05:09:01.897Z,12.26
2022-10-30T05:11:50.652Z,12.08
2022-10-30T05:14:18.215Z,12.16
2022-10-30T05:16:45.666Z,12.14
2022-10-30T05:19:43.976Z,12.09
2022-10-30T05:22:15.459Z,12.15
2022-10-30T05:29:05.656Z,11.97
2022-10-30T05:32:11.029Z,12.33
2022-10-30T05:46:10.318Z,12.96
2022-10-30T05:48:55.046Z,12.93
2022-10-30T05:51:38.047Z,12.76
2022-10-30T05:54:56.276Z,13.06
2022-10-30T05:57:53.052Z,13.08
2022-10-30T06:00:51.841Z,12.46
2022-10-30T06:03:53.885Z,12.77
2022-10-30T06:06:21.683Z,12.68
2022-10-30T06:09:07.261Z,12.70
2022-10-30T06:11:37.554Z,12.73
2022-10-30T06:14:25.284Z,12.68
2022-10-30T06:17:00.162Z,12.53
2022-10-30T06:25:02.437Z,12.55
2022-10-30T06:28:13.536Z,12.44
2022-10-30T06:30:57.124Z,12.28
2022-10-30T06:33:30.434Z,12.67
2022-10-30T06:36:15.330Z,12.58
2022-10-30T06:38:58.837Z,12.64
2022-10-30T06:41:30.302Z,12.53
2022-10-30T06:44:00.640Z,12.48
2022-10-30T06:46:40.040Z,12.64
2022-10-30T06:49:10.252Z,12.82
2022-10-30T06:51:37.757Z,12.91
2022-10-30T06:55:09.758Z,12.72
2022-10-30T06:57:39.653Z,12.82
2022-10-30T07:00:36.320Z,12.87
2022-10-30T07:04:27.762Z,13.13
2022-10-30T07:06:57.314Z,13.37
2022-10-30T07:09:35.607Z,13.58
2022-10-30T07:12:11.350Z,13.63
2022-10-30T07:14:43.917Z,13.69
2022-10-30T07:17:14.012Z,13.80
2022-10-30T07:19:55.912Z,13.63
2022-10-30T07:22:25.207Z,13.74
2022-10-30T07:24:55.496Z,13.99
2022-10-30T07:28:38.985Z,14.14
2022-10-30T07:31:42.457Z,14.11
2022-10-30T07:35:23.426Z,14.35
2022-10-30T07:37:53.433Z,14.21
2022-10-30T07:40:46.625Z,14.38
2022-10-30T07:43:33.671Z,14.54
2022-10-30T07:46:37.265Z,14.73
2022-10-30T07:49:04.531Z,14.92
2022-10-30T07:51:47.813Z,14.97
2022-10-30T07:54:42.495Z,15.17
2022-10-30T07:57:23.725Z,15.38
2022-10-30T08:00:11.662Z,15.26
2022-10-30T08:02:51.782Z,15.13
2022-10-30T08:09:01.168Z,15.23
2022-10-30T08:11:28.242Z,15.54
2022-10-30T08:13:55.204Z,15.46
2022-10-30T08:16:22.257Z,15.79
2022-10-30T08:18:52.898Z,15.91
2022-10-30T08:21:41.382Z,15.93
2022-10-30T08:24:16.611Z,15.96
2022-10-30T08:26:43.919Z,16.20
2022-10-30T08:29:43.948Z,16.36
2022-10-30T08:32:11.628Z,16.42
2022-10-30T08:34:38.779Z,16.61
2022-10-30T08:37:08.179Z,16.74
2022-10-30T08:39:41.260Z,16.81
2022-10-30T08:42:08.207Z,16.67
2022-10-30T08:44:50.994Z,16.59
2022-10-30T08:47:18.311Z,16.79
2022-10-30T08:49:45.485Z,16.99
2022-10-30T08:52:21.870Z,16.78
2022-10-30T08:54:49.635Z,16.97
2022-10-30T08:57:16.775Z,17.08
2022-10-30T08:59:43.742Z,17.23
2022-10-30T09:02:13.865Z,17.22
2022-10-30T09:04:44.137Z,17.45
2022-10-30T09:07:13.032Z,17.45
2022-10-30T09:09:43.417Z,17.50
2022-10-30T09:12:19.253Z,17.46
2022-10-30T09:14:52.967Z,17.38
2022-10-30T09:17:20.297Z,17.07
2022-10-30T09:23:06.546Z,17.19
2022-10-30T09:25:33.869Z,17.25
2022-10-30T09:28:00.996Z,17.33
2022-10-30T09:30:28.245Z,17.46
2022-10-30T09:33:04.647Z,17.68
2022-10-30T09:35:33.017Z,17.85
2022-10-30T09:38:00.809Z,17.92
2022-10-30T09:41:47.120Z,18.00
2022-10-30T09:44:34.723Z,18.15
2022-10-30T09:47:40.754Z,18.16
2022-10-30T09:51:10.082Z,18.33
2022-10-30T09:58:17.625Z,18.14
2022-10-30T10:01:24.384Z,18.08
2022-10-30T10:04:36.277Z,18.15
2022-10-30T10:07:21.732Z,18.30
2022-10-30T10:10:43.051Z,18.47
2022-10-30T10:14:13.133Z,18.33
2022-10-30T10:17:07.598Z,18.73
2022-10-30T10:19:54.764Z,18.87
2022-10-30T10:23:49.021Z,19.03
2022-10-30T10:26:54.614Z,19.07
2022-10-30T10:29:42.574Z,19.26
2022-10-30T10:32:28.426Z,19.32
2022-10-30T10:35:50.380Z,19.35
2022-10-30T10:38:42.435Z,19.45
2022-10-30T10:41:33.308Z,19.47
2022-10-30T10:44:41.171Z,19.46
2022-10-30T10:48:17.045Z,19.46
2022-10-30T10:51:06.629Z,19.56
2022-10-30T10:53:59.582Z,19.77
2022-10-30T10:56:39.634Z,19.94
2022-10-30T10:59:16.918Z,20.09
2022-10-30T11:02:31.867Z,20.03
2022-10-30T11:05:43.911Z,20.29
2022-10-30T11:08:35.455Z,20.39
2022-10-30T11:11:06.287Z,20.59
2022-10-30T11:13:43.734Z,20.47
2022-10-30T11:16:44.213Z,20.68
2022-10-30T11:19:11.284Z,20.65
2022-10-30T11:21:51.551Z,20.83
2022-10-30T11:24:47.313Z,20.89
2022-10-30T11:27:24.056Z,20.93
2022-10-30T11:30:04.865Z,21.02
2022-10-30T11:32:34.911Z,21.14
2022-10-30T11:35:08.222Z,20.87
2022-10-30T11:37:43.337Z,20.98
2022-10-30T11:40:18.416Z,20.80
2022-10-30T11:43:05.044Z,20.88
2022-10-30T11:45:41.699Z,20.96
2022-10-30T11:48:35.742Z,21.04
2022-10-30T11:51:05.218Z,21.12
2022-10-30T11:53:40.190Z,21.02
2022-10-30T11:56:24.881Z,20.96
2022-10-30T11:59:00.561Z,21.06
2022-10-30T12:01:37.174Z,21.05
2022-10-30T12:04:25.048Z,21.19
2022-10-30T12:07:25.173Z,21.26
2022-10-30T12:10:01.695Z,21.16
2022-10-30T12:12:42.077Z,21.20
2022-10-30T12:15:15.287Z,21.30
2022-10-30T12:18:06.552Z,21.55
2022-10-30T12:20:37.766Z,21.38
2022-10-30T12:23:21.258Z,21.44
2022-10-30T12:25:56.324Z,21.69
2022-10-30T12:29:20.274Z,21.77
2022-10-30T12:35:49.697Z,21.96
2022-10-30T12:39:37.021Z,21.91
2022-10-30T12:42:23.500Z,22.04
2022-10-30T12:45:30.179Z,22.39
2022-10-30T12:48:28.791Z,22.29
2022-10-30T12:52:07.588Z,21.95
2022-10-30T12:56:02.226Z,22.19
2022-10-30T12:59:08.576Z,22.56
2022-10-30T13:05:46.112Z,22.54
2022-10-30T13:09:44.582Z,22.67
2022-10-30T13:12:42.651Z,22.41
2022-10-30T13:16:08.343Z,22.62
2022-10-30T13:19:10.537Z,22.57
2022-10-30T13:22:19.002Z,22.79
2022-10-30T13:25:38.256Z,22.82
2022-10-30T13:28:56.198Z,22.46
2022-10-30T13:31:58.994Z,22.42
2022-10-30T13:35:08.763Z,22.45
2022-10-30T13:38:56.309Z,22.39
2022-10-30T13:41:51.497Z,22.43
2022-10-30T13:45:02.386Z,22.36
2022-10-30T13:48:33.831Z,22.27
2022-10-30T13:52:00.609Z,22.21
2022-10-30T13:54:51.511Z,22.30
2022-10-30T13:57:56.543Z,22.29
2022-10-30T14:00:57.818Z,22.14
2022-10-30T14:03:51.248Z,22.30
2022-10-30T14:07:29.434Z,22.12
2022-10-30T14:18:41.303Z,21.74
2022-10-30T14:21:32.433Z,21.86
2022-10-30T14:24:34.243Z,21.55
2022-10-30T14:27:30.277Z,21.54
2022-10-30T14:29:58.487Z,21.56
2022-10-30T14:32:30.995Z,21.49
2022-10-30T14:35:23.167Z,21.26
2022-10-30T14:38:23.519Z,21.35
2022-10-30T14:45:47.772Z,21.16
2022-10-30T14:49:19.283Z,20.91
2022-10-30T14:52:19.339Z,20.75
2022-10-30T14:56:05.660Z,20.56
2022-10-30T14:58:42.354Z,20.45
2022-10-30T15:01:50.431Z,20.13
2022-10-30T15:06:17.379Z,20.13
2022-10-30T15:09:39.521Z,19.83
2022-10-30T15:13:51.475Z,19.61
2022-10-30T15:16:41.918Z,19.53
2022-10-30T15:19:23.885Z,19.35
2022-10-30T15:21:56.634Z,19.32
2022-10-30T15:24:32.411Z,19.18
2022-10-30T15:27:21.436Z,18.98
2022-10-30T15:33:02.947Z,18.30
2022-10-30T15:35:52.979Z,17.98
2022-10-30T15:38:39.352Z,17.88
2022-10-30T15:41:19.147Z,17.78
2022-10-30T15:43:49.149Z,17.69
2022-10-30T15:46:19.817Z,17.56
2022-10-30T15:48:51.810Z,17.46
2022-10-30T15:51:23.838Z,17.29
2022-10-30T15:54:01.903Z,17.10
2022-10-30T15:57:17.841Z,16.94
2022-10-30T15:59:40.222Z,16.89
2022-10-30T16:02:31.608Z,16.88
2022-10-30T16:04:59.425Z,16.72
2022-10-30T16:07:48.173Z,16.59
2022-10-30T16:10:28.223Z,16.60
2022-10-30T16:13:19.788Z,16.38
2022-10-30T16:15:47.945Z,16.18
2022-10-30T16:18:36.619Z,15.96
2022-10-30T16:21:16.613Z,15.39
2022-10-30T16:23:57.162Z,15.04
2022-10-30T16:26:42.446Z,15.30
2022-10-30T16:29:29.975Z,15.14
2022-10-30T16:32:01.534Z,15.33
2022-10-30T16:34:36.642Z,15.40
2022-10-30T16:37:40.862Z,15.34
2022-10-30T16:40:28.459Z,15.33
2022-10-30T16:43:03.588Z,15.33
2022-10-30T16:45:55.106Z,15.24
2022-10-30T16:49:23.373Z,15.33
2022-10-30T16:52:06.651Z,14.91
2022-10-30T16:55:27.565Z,14.82
2022-10-30T16:57:58.716Z,14.77
2022-10-30T17:00:35.411Z,14.45
2022-10-30T17:03:13.970Z,14.48
2022-10-30T17:05:56.090Z,14.42
2022-10-30T17:08:22.921Z,14.35
2022-10-30T17:11:07.111Z,14.49
2022-10-30T17:13:52.404Z,14.51
2022-10-30T17:16:31.913Z,14.37
2022-10-30T17:19:30.911Z,14.39
2022-10-30T17:22:08.034Z,14.27
2022-10-30T17:24:38.441Z,13.93
2022-10-30T17:27:26.024Z,13.92
2022-10-30T17:29:57.437Z,13.80
2022-10-30T17:32:43.086Z,13.88
2022-10-30T17:35:19.450Z,13.96
2022-10-30T17:37:46.572Z,14.04
2022-10-30T17:40:14.977Z,13.94
2022-10-30T17:42:42.610Z,13.90
2022-10-30T17:45:15.915Z,13.87
2022-10-30T17:47:43.367Z,13.99
2022-10-30T17:50:11.576Z,14.05
2022-10-30T17:52:38.760Z,13.85
2022-10-30T17:55:30.070Z,13.65
2022-10-30T17:58:02.878Z,13.60
2022-10-30T18:00:32.680Z,13.39
2022-10-30T18:03:00.650Z,12.73
2022-10-30T18:05:32.392Z,12.80
2022-10-30T18:07:59.827Z,12.77
2022-10-30T18:10:27.442Z,13.01
2022-10-30T18:12:54.489Z,13.29
2022-10-30T18:15:36.860Z,13.29
2022-10-30T18:18:09.997Z,13.23
2022-10-30T18:20:37.511Z,13.33
2022-10-30T18:23:32.178Z,13.37
2022-10-30T18:26:08.816Z,13.24
2022-10-30T18:28:35.919Z,13.13
2022-10-30T18:31:08.231Z,13.17
2022-10-30T18:33:35.756Z,13.25
2022-10-30T18:36:02.809Z,13.37
2022-10-30T18:38:35.383Z,13.36
2022-10-30T18:41:03.057Z,13.26
2022-10-30T18:43:32.883Z,13.05
2022-10-30T18:46:08.698Z,13.15
2022-10-30T18:48:35.616Z,13.03
2022-10-30T18:51:13.708Z,12.90
2022-10-30T18:53:51.341Z,12.76
2022-10-30T18:56:28.236Z,12.76
2022-10-30T18:59:00.798Z,12.72
2022-10-30T19:01:37.615Z,12.71
2022-10-30T19:04:11.024Z,12.62
2022-10-30T19:06:38.788Z,12.46
2022-10-30T19:09:15.617Z,12.41
2022-10-30T19:11:51.925Z,12.29
2022-10-30T19:14:22.116Z,12.31
2022-10-30T19:16:49.183Z,12.43
2022-10-30T19:19:17.871Z,12.37
2022-10-30T19:21:45.108Z,12.24
2022-10-30T19:24:14.994Z,12.24
2022-10-30T19:26:42.199Z,12.36
2022-10-30T19:29:10.538Z,12.22
2022-10-30T19:31:39.902Z,12.45
2022-10-30T19:34:07.096Z,12.56
2022-10-30T19:36:37.653Z,12.47
2022-10-30T19:39:24.378Z,12.53
2022-10-30T19:41:52.041Z,12.41
2022-10-30T19:44:28.781Z,12.31
2022-10-30T19:47:19.762Z,12.08
2022-10-30T19:49:49.929Z,11.73
2022-10-30T19:52:28.166Z,11.59
2022-10-30T19:54:59.595Z,11.60
2022-10-30T19:57:26.990Z,11.61
2022-10-30T19:59:54.403Z,11.78
2022-10-30T20:05:29.901Z,11.65
2022-10-30T20:08:15.490Z,11.92
2022-10-30T20:11:02.046Z,11.89
2022-10-30T20:13:35.151Z,11.96
2022-10-30T20:16:14.352Z,11.98
2022-10-30T20:18:44.589Z,11.84
2022-10-30T20:21:27.774Z,11.68
2022-10-30T20:24:12.777Z,11.40
2022-10-30T20:27:01.627Z,11.49
2022-10-30T20:29:29.890Z,11.37
2022-10-30T20:32:12.968Z,11.26
2022-10-30T20:34:47.896Z,11.31
2022-10-30T20:37:15.057Z,11.49
2022-10-30T20:39:44.934Z,11.88
2022-10-30T20:42:31.985Z,11.94
2022-10-30T20:45:27.315Z,11.82
2022-10-30T20:47:54.738Z,11.89
2022-10-30T20:50:35.701Z,12.10
2022-10-30T20:53:03.258Z,12.18
2022-10-30T20:55:35.297Z,12.28
2022-10-30T20:58:08.662Z,12.35
2022-10-30T21:00:44.499Z,12.40
2022-10-30T21:03:15.020Z,12.37
2022-10-30T21:08:31.633Z,12.25
2022-10-30T21:11:06.668Z,12.16
2022-10-30T21:13:43.907Z,11.71
2022-10-30T21:16:23.143Z,11.13
2022-10-30T21:19:05.256Z,11.01
2022-10-30T21:21:35.166Z,10.97
2022-10-30T21:24:02.665Z,11.05
2022-10-30T21:26:29.795Z,11.02
2022-10-30T21:29:00.501Z,10.99
2022-10-30T21:31:33.893Z,10.65
2022-10-30T21:34:01.367Z,10.63
2022-10-30T21:36:34.552Z,10.60
2022-10-30T21:39:09.622Z,10.59
2022-10-30T21:41:42.527Z,10.49
2022-10-30T21:44:10.398Z,10.56
2022-10-30T21:46:37.622Z,10.48
2022-10-30T21:49:07.917Z,10.67
2022-10-30T21:51:35.047Z,10.52
2022-10-30T21:54:02.199Z,10.44
2022-10-30T21:56:30.012Z,10.38
2022-10-30T21:59:06.737Z,10.62
2022-10-30T22:01:37.625Z,10.69
2022-10-30T22:04:08.677Z,10.88
2022-10-30T22:06:41.570Z,10.94
2022-10-30T22:09:09.163Z,11.12
2022-10-30T22:11:36.505Z,11.25
2022-10-30T22:14:05.328Z,11.37
2022-10-30T22:16:36.596Z,11.58
2022-10-30T22:19:06.986Z,11.66
2022-10-30T22:21:34.571Z,11.67
2022-10-30T22:24:03.429Z,11.73
2022-10-30T22:26:31.088Z,11.75
2022-10-30T22:29:00.728Z,11.88
2022-10-30T22:31:30.299Z,11.77
2022-10-30T22:34:00.989Z,11.86
2022-10-30T22:36:32.802Z,11.86
2022-10-30T22:39:09.996Z,11.24
2022-10-30T22:41:38.323Z,10.62
2022-10-30T22:44:08.661Z,10.43
2022-10-30T22:46:36.827Z,10.43
2022-10-30T22:49:04.195Z,10.63
2022-10-30T22:51:34.350Z,11.03
2022-10-30T22:54:06.148Z,11.12
2022-10-30T22:56:36.180Z,11.31
2022-10-30T22:59:11.838Z,11.41
2022-10-30T23:01:40.707Z,11.46
2022-10-30T23:04:12.817Z,11.07
2022-10-30T23:06:39.886Z,10.63
2022-10-30T23:09:15.206Z,10.30
2022-10-30T23:11:42.489Z,10.01
2022-10-30T23:14:09.476Z,9.89
2022-10-30T23:16:36.731Z,10.00
2022-10-30T23:19:03.820Z,9.97
2022-10-30T23:21:32.186Z,9.97
2022-10-30T23:24:01.440Z,9.94
2022-10-30T23:26:35.152Z,9.95
2022-10-30T23:29:03.860Z,9.94
2022-10-30T23:31:41.711Z,9.82
2022-10-30T23:34:15.585Z,9.77
2022-10-30T23:36:43.552Z,9.80
2022-10-30T23:39:16.301Z,9.91
2022-10-30T23:41:43.916Z,9.87
2022-10-30T23:44:16.519Z,9.80
2022-10-30T23:46:43.710Z,9.69
2022-10-30T23:49:10.720Z,9.78
2022-10-30T23:51:37.846Z,9.69
2022-10-30T23:54:05.462Z,9.61
2022-10-30T23:56:32.553Z,9.44
2022-10-30T23:59:00.238Z,9.69
